createdAt,value
2018-02-19T00:00:50.635Z,31.33
2018-02-19T00:03:18.286Z,30.92
2018-02-19T00:05:46.720Z,31.65
2018-02-19T00:08:15.042Z,30.40
2018-02-19T00:10:43.389Z,29.12
2018-02-19T00:13:12.059Z,30.90
2018-02-19T00:15:39.623Z,28.83
2018-02-19T00:18:07.230Z,30.37
2018-02-19T00:20:34.814Z,29.60
2018-02-19T00:23:02.470Z,29.37
2018-02-19T00:25:30.022Z,30.30
2018-02-19T00:27:58.442Z,30.75
2018-02-19T00:30:25.988Z,33.28
2018-02-19T00:32:53.565Z,30.90
2018-02-19T00:35:21.137Z,31.10
2018-02-19T00:37:48.677Z,29.17
2018-02-19T00:40:16.974Z,30.00
2018-02-19T00:42:45.317Z,31.20
2018-02-19T00:45:12.939Z,29.30
2018-02-19T00:47:40.453Z,30.17
2018-02-19T00:50:07.989Z,31.45
2018-02-19T00:52:35.537Z,31.90
2018-02-19T00:55:03.071Z,30.35
2018-02-19T00:57:30.774Z,30.92
2018-02-19T00:59:58.334Z,29.12
2018-02-19T01:02:26.887Z,29.45
2018-02-19T01:04:54.516Z,29.60
2018-02-19T01:07:22.033Z,31.37
2018-02-19T01:09:50.352Z,28.85
2018-02-19T01:12:17.931Z,29.30
2018-02-19T01:14:45.497Z,27.52
2018-02-19T01:17:13.116Z,29.50
2018-02-19T01:19:40.701Z,29.65
2018-02-19T01:22:08.299Z,28.00
2018-02-19T01:24:36.647Z,27.37
2018-02-19T01:27:04.234Z,29.50
2018-02-19T01:29:32.625Z,28.80
2018-02-19T01:32:00.931Z,28.58
2018-02-19T01:34:28.533Z,29.55
2018-02-19T01:36:56.090Z,27.65
2018-02-19T01:39:23.613Z,29.05
2018-02-19T01:41:51.204Z,29.85
2018-02-19T01:44:19.577Z,27.45
2018-02-19T01:46:47.146Z,27.50
2018-02-19T01:49:14.732Z,27.90
2018-02-19T01:51:43.077Z,28.40
2018-02-19T01:54:10.610Z,30.52
2018-02-19T01:56:38.365Z,26.80
2018-02-19T01:59:06.844Z,27.25
2018-02-19T02:01:34.388Z,28.48
2018-02-19T02:04:02.700Z,27.23
2018-02-19T02:06:30.252Z,25.85
2018-02-19T02:08:57.782Z,26.33
2018-02-19T02:11:26.094Z,26.65
2018-02-19T02:13:53.664Z,26.42
2018-02-19T02:16:21.209Z,27.48
2018-02-19T02:18:48.796Z,24.40
2018-02-19T02:21:16.343Z,27.60
2018-02-19T02:23:44.313Z,24.63
2018-02-19T02:26:11.882Z,23.27
2018-02-19T02:28:40.187Z,27.15
2018-02-19T02:31:07.729Z,23.60
2018-02-19T02:33:35.322Z,24.73
2018-02-19T02:36:04.637Z,24.35
2018-02-19T02:38:32.222Z,25.50
2018-02-19T02:40:59.843Z,25.48
2018-02-19T02:43:27.425Z,26.73
2018-02-19T02:45:54.977Z,24.35
2018-02-19T02:48:22.502Z,25.15
2018-02-19T02:50:50.069Z,25.50
2018-02-19T02:53:18.368Z,25.83
2018-02-19T02:55:45.924Z,25.10
2018-02-19T02:58:14.236Z,25.40
2018-02-19T03:00:41.840Z,29.08
2018-02-19T03:03:09.370Z,26.33
2018-02-19T03:05:36.963Z,27.75
2018-02-19T03:08:05.307Z,28.70
2018-02-19T03:10:32.883Z,26.20
2018-02-19T03:13:01.162Z,29.48
2018-02-19T03:15:28.778Z,38.83
2018-02-19T03:17:56.321Z,32.00
2018-02-19T03:20:23.880Z,32.33
2018-02-19T03:22:51.428Z,26.60
2018-02-19T03:25:19.023Z,26.62
2018-02-19T03:27:46.604Z,25.10
2018-02-19T03:30:14.417Z,25.20
2018-02-19T03:32:41.975Z,24.40
2018-02-19T03:35:10.285Z,27.17
2018-02-19T03:37:37.889Z,25.75
2018-02-19T03:40:05.435Z,26.00
2018-02-19T03:42:33.834Z,24.30
2018-02-19T03:45:01.433Z,27.67
2018-02-19T03:47:29.020Z,25.67
2018-02-19T03:49:57.390Z,27.13
2018-02-19T03:52:25.400Z,22.20
2018-02-19T03:54:52.970Z,27.77
2018-02-19T03:57:21.673Z,23.25
2018-02-19T03:59:49.317Z,24.27
2018-02-19T04:02:17.653Z,24.30
2018-02-19T04:04:45.463Z,24.33
2018-02-19T04:07:13.782Z,23.45
2018-02-19T04:09:41.321Z,24.90
2018-02-19T04:12:08.875Z,23.15
2018-02-19T04:14:36.427Z,27.13
2018-02-19T04:17:04.047Z,23.27
2018-02-19T04:19:31.555Z,25.90
2018-02-19T04:21:59.110Z,24.35
2018-02-19T04:24:26.702Z,24.48
2018-02-19T04:26:54.533Z,27.05
2018-02-19T04:29:22.820Z,24.87
2018-02-19T04:31:50.377Z,25.10
2018-02-19T04:34:17.962Z,23.50
2018-02-19T04:36:45.522Z,25.90
2018-02-19T04:39:13.127Z,31.25
2018-02-19T04:41:41.534Z,25.02
2018-02-19T04:44:24.841Z,27.08
2018-02-19T04:46:55.045Z,25.12
2018-02-19T04:49:22.578Z,25.27
2018-02-19T04:51:50.167Z,23.80
2018-02-19T04:54:18.314Z,25.60
2018-02-19T04:56:45.868Z,27.80
2018-02-19T04:59:13.428Z,25.25
2018-02-19T05:01:41.739Z,25.90
2018-02-19T05:04:09.282Z,25.60
2018-02-19T05:06:37.585Z,23.60
2018-02-19T05:09:05.150Z,24.05
2018-02-19T05:11:33.478Z,24.87
2018-02-19T05:16:35.131Z,25.92
2018-02-19T05:19:02.734Z,26.58
2018-02-19T05:21:30.296Z,25.80
2018-02-19T05:23:57.827Z,25.33
2018-02-19T05:26:26.174Z,26.27
2018-02-19T05:28:53.753Z,29.33
2018-02-19T05:31:21.309Z,28.70
2018-02-19T05:33:48.965Z,28.48
2018-02-19T05:36:16.536Z,28.27
2018-02-19T05:38:44.392Z,27.65
2018-02-19T05:41:11.951Z,27.42
2018-02-19T05:43:39.525Z,28.08
2018-02-19T05:46:07.937Z,27.83
2018-02-19T05:48:35.528Z,28.20
2018-02-19T05:51:03.097Z,28.23
2018-02-19T05:53:30.671Z,26.45
2018-02-19T05:55:58.261Z,27.92
2018-02-19T05:58:26.640Z,30.62
2018-02-19T06:00:54.944Z,28.23
2018-02-19T06:03:22.521Z,25.50
2018-02-19T06:05:50.208Z,26.37
2018-02-19T06:08:17.841Z,27.52
2018-02-19T06:10:45.382Z,26.98
2018-02-19T06:13:13.071Z,26.52
2018-02-19T06:15:40.650Z,29.02
2018-02-19T06:18:09.133Z,26.42
2018-02-19T06:20:36.719Z,30.77
2018-02-19T06:23:05.070Z,29.48
2018-02-19T06:25:32.696Z,27.95
2018-02-19T06:28:00.669Z,27.50
2018-02-19T06:30:28.228Z,29.63
2018-02-19T06:32:58.512Z,29.40
2018-02-19T06:35:26.914Z,30.65
2018-02-19T06:37:54.524Z,29.63
2018-02-19T06:40:22.151Z,28.50
2018-02-19T06:42:50.561Z,26.23
2018-02-19T06:45:18.164Z,31.35
2018-02-19T06:47:46.440Z,29.80
2018-02-19T06:50:14.011Z,29.40
2018-02-19T06:52:41.616Z,30.02
2018-02-19T06:55:09.954Z,31.45
2018-02-19T06:57:37.505Z,28.90
2018-02-19T07:00:05.140Z,29.60
2018-02-19T07:02:32.974Z,29.75
2018-02-19T07:05:00.593Z,29.12
2018-02-19T07:07:28.148Z,29.52
2018-02-19T07:09:55.738Z,28.35
2018-02-19T07:12:23.324Z,29.25
2018-02-19T07:14:51.650Z,32.38
2018-02-19T07:17:19.236Z,29.67
2018-02-19T07:19:46.878Z,30.20
2018-02-19T07:22:14.444Z,30.30
2018-02-19T07:24:42.770Z,28.27
2018-02-19T07:27:10.329Z,32.05
2018-02-19T07:29:37.944Z,33.20
2018-02-19T07:32:05.479Z,29.90
2018-02-19T07:34:33.014Z,29.83
2018-02-19T07:37:00.610Z,32.13
2018-02-19T07:39:28.126Z,29.27
2018-02-19T07:41:56.465Z,31.85
2018-02-19T07:44:24.010Z,31.62
2018-02-19T07:46:51.558Z,31.05
2018-02-19T07:49:19.174Z,31.60
2018-02-19T07:51:47.507Z,30.30
2018-02-19T07:54:15.803Z,31.12
2018-02-19T07:56:44.185Z,29.95
2018-02-19T07:59:12.003Z,28.67
2018-02-19T08:01:39.541Z,32.55
2018-02-19T08:04:07.156Z,29.25
2018-02-19T08:06:35.547Z,28.17
2018-02-19T08:09:03.134Z,30.70
2018-02-19T08:11:31.459Z,30.50
2018-02-19T08:13:58.995Z,31.30
2018-02-19T08:16:26.579Z,30.20
2018-02-19T08:18:54.122Z,30.10
2018-02-19T08:21:21.788Z,29.45
2018-02-19T08:23:50.271Z,30.67
2018-02-19T08:26:17.869Z,29.98
2018-02-19T08:28:45.431Z,27.13
2018-02-19T08:31:12.988Z,30.08
2018-02-19T08:33:41.368Z,28.17
2018-02-19T08:36:08.942Z,28.00
2018-02-19T08:38:36.483Z,27.77
2018-02-19T08:41:04.737Z,27.87
2018-02-19T08:43:32.332Z,29.08
2018-02-19T08:46:00.699Z,26.17
2018-02-19T08:48:28.231Z,26.62
2018-02-19T08:50:55.787Z,29.60
2018-02-19T08:53:23.331Z,27.08
2018-02-19T08:55:50.860Z,29.48
2018-02-19T08:58:19.867Z,26.48
2018-02-19T09:00:47.409Z,29.60
2018-02-19T09:03:14.994Z,29.02
2018-02-19T09:05:42.582Z,29.23
2018-02-19T09:08:10.172Z,28.48
2018-02-19T09:10:37.855Z,27.37
2018-02-19T09:13:06.990Z,29.00
2018-02-19T09:15:34.563Z,24.83
2018-02-19T09:18:02.150Z,26.35
2018-02-19T09:20:29.726Z,27.90
2018-02-19T09:22:58.018Z,28.33
2018-02-19T09:25:26.330Z,28.27
2018-02-19T09:27:53.908Z,28.75
2018-02-19T09:30:22.370Z,24.23
2018-02-19T09:32:50.115Z,24.30
2018-02-19T09:35:17.688Z,24.50
2018-02-19T09:37:45.259Z,24.50
2018-02-19T09:40:12.909Z,25.77
2018-02-19T09:42:40.578Z,29.33
2018-02-19T09:45:08.130Z,25.15
2018-02-19T09:47:35.713Z,23.58
2018-02-19T09:50:03.375Z,26.33
2018-02-19T09:52:31.709Z,25.60
2018-02-19T09:55:00.037Z,27.55
2018-02-19T09:57:27.629Z,25.15
2018-02-19T09:59:55.219Z,26.37
2018-02-19T10:02:22.789Z,25.73
2018-02-19T10:04:50.328Z,24.42
2018-02-19T10:07:17.927Z,26.12
2018-02-19T10:09:46.207Z,26.05
2018-02-19T10:12:13.769Z,26.08
2018-02-19T10:14:41.335Z,25.73
2018-02-19T10:17:08.882Z,24.27
2018-02-19T10:19:36.469Z,24.83
2018-02-19T10:22:04.058Z,24.27
2018-02-19T10:24:32.397Z,21.83
2018-02-19T10:26:59.995Z,24.30
2018-02-19T10:29:28.303Z,23.25
2018-02-19T10:31:55.860Z,25.80
2018-02-19T10:34:23.425Z,25.15
2018-02-19T10:36:50.979Z,26.17
2018-02-19T10:39:18.543Z,34.97
2018-02-19T10:41:46.127Z,27.70
2018-02-19T10:44:13.690Z,26.48
2018-02-19T10:46:41.248Z,22.40
2018-02-19T10:49:08.811Z,27.00
2018-02-19T10:51:36.387Z,23.08
2018-02-19T10:54:03.987Z,25.45
2018-02-19T10:56:31.492Z,23.95
2018-02-19T10:58:59.049Z,25.92
2018-02-19T11:01:26.611Z,26.73
2018-02-19T11:03:55.002Z,27.17
2018-02-19T11:06:22.782Z,25.48
2018-02-19T11:08:50.321Z,26.15
2018-02-19T11:11:17.880Z,27.65
2018-02-19T11:13:45.427Z,24.48
2018-02-19T11:16:13.076Z,25.75
2018-02-19T11:18:40.651Z,25.98
2018-02-19T11:21:08.310Z,29.42
2018-02-19T11:23:35.846Z,27.55
2018-02-19T11:26:03.435Z,29.55
2018-02-19T11:28:31.033Z,35.03
2018-02-19T11:30:58.595Z,28.80
2018-02-19T11:33:26.214Z,31.08
2018-02-19T11:35:53.793Z,26.77
2018-02-19T11:38:21.343Z,30.90
2018-02-19T11:40:48.937Z,25.05
2018-02-19T11:43:16.510Z,24.37
2018-02-19T11:45:44.101Z,26.37
2018-02-19T11:48:11.771Z,24.05
2018-02-19T11:50:39.356Z,31.23
2018-02-19T11:53:07.017Z,24.42
2018-02-19T11:55:34.590Z,26.98
2018-02-19T11:58:02.150Z,30.48
2018-02-19T12:00:30.524Z,23.60
2018-02-19T12:02:58.119Z,28.52
2018-02-19T12:05:25.749Z,28.33
2018-02-19T12:07:53.329Z,23.08
2018-02-19T12:10:20.909Z,24.55
2018-02-19T12:12:49.342Z,28.65
2018-02-19T12:15:16.903Z,26.65
2018-02-19T12:17:44.434Z,27.35
2018-02-19T12:20:12.819Z,24.73
2018-02-19T12:22:40.364Z,25.12
2018-02-19T12:25:08.697Z,25.12
2018-02-19T12:27:36.276Z,28.40
2018-02-19T12:30:03.928Z,23.92
2018-02-19T12:32:31.475Z,26.33
2018-02-19T12:34:59.810Z,27.10
2018-02-19T12:37:28.497Z,24.98
2018-02-19T12:39:56.055Z,33.92
2018-02-19T12:42:23.654Z,24.50
2018-02-19T12:44:52.024Z,23.17
2018-02-19T12:47:19.682Z,28.10
2018-02-19T12:49:47.239Z,24.45
2018-02-19T12:52:14.789Z,25.42
2018-02-19T12:54:42.350Z,22.50
2018-02-19T12:57:09.937Z,23.80
2018-02-19T12:59:37.512Z,22.42
2018-02-19T13:02:05.440Z,24.02
2018-02-19T13:04:33.009Z,22.42
2018-02-19T13:07:00.616Z,21.62
2018-02-19T13:09:28.145Z,22.67
2018-02-19T13:11:55.704Z,25.48
2018-02-19T13:14:23.313Z,22.35
2018-02-19T13:16:51.692Z,22.62
2018-02-19T13:19:19.282Z,21.98
2018-02-19T13:21:47.409Z,25.73
2018-02-19T13:24:14.950Z,25.37
2018-02-19T13:26:42.502Z,18.98
2018-02-19T13:29:10.055Z,25.50
2018-02-19T13:31:37.623Z,20.58
2018-02-19T13:34:05.186Z,21.45
2018-02-19T13:36:33.512Z,19.80
2018-02-19T13:39:01.066Z,21.98
2018-02-19T13:41:29.374Z,20.10
2018-02-19T13:43:57.050Z,20.98
2018-02-19T13:46:24.660Z,21.75
2018-02-19T13:48:52.265Z,22.70
2018-02-19T13:51:21.321Z,19.20
2018-02-19T13:53:49.625Z,21.98
2018-02-19T13:56:17.196Z,19.52
2018-02-19T13:58:44.718Z,20.40
2018-02-19T14:01:12.282Z,20.15
2018-02-19T14:03:40.624Z,20.92
2018-02-19T14:06:08.284Z,21.50
2018-02-19T14:08:35.806Z,20.05
2018-02-19T14:11:03.372Z,20.90
2018-02-19T14:13:30.892Z,21.98
2018-02-19T14:15:59.222Z,22.92
2018-02-19T14:18:27.018Z,20.70
2018-02-19T14:20:54.635Z,26.00
2018-02-19T14:23:22.203Z,22.98
2018-02-19T14:25:49.794Z,21.17
2018-02-19T14:28:17.401Z,21.20
2018-02-19T14:30:44.925Z,21.65
2018-02-19T14:33:13.256Z,24.42
2018-02-19T14:35:40.814Z,23.80
2018-02-19T14:38:08.376Z,19.50
2018-02-19T14:40:35.951Z,21.10
2018-02-19T14:43:03.517Z,19.00
2018-02-19T14:45:31.101Z,20.75
2018-02-19T14:47:58.665Z,20.40
2018-02-19T14:50:27.257Z,19.42
2018-02-19T14:52:54.806Z,21.00
2018-02-19T14:55:23.140Z,20.10
2018-02-19T14:57:50.657Z,19.15
2018-02-19T15:00:19.054Z,19.80
2018-02-19T15:02:46.622Z,22.05
2018-02-19T15:05:14.216Z,18.17
2018-02-19T15:07:41.745Z,19.92
2018-02-19T15:10:09.291Z,21.95
2018-02-19T15:12:36.848Z,19.40
2018-02-19T15:15:04.487Z,20.40
2018-02-19T15:17:32.880Z,19.52
2018-02-19T15:20:01.318Z,22.42
2018-02-19T15:22:28.886Z,19.23
2018-02-19T15:24:56.567Z,19.30
2018-02-19T15:27:25.161Z,21.70
2018-02-19T15:29:52.686Z,17.67
2018-02-19T15:32:20.287Z,21.10
2018-02-19T15:34:48.765Z,21.62
2018-02-19T15:37:16.624Z,20.23
2018-02-19T15:39:44.968Z,19.20
2018-02-19T15:42:12.522Z,22.92
2018-02-19T15:44:40.982Z,20.37
2018-02-19T15:47:09.346Z,18.33
2018-02-19T15:49:36.926Z,22.05
2018-02-19T15:52:04.541Z,19.60
2018-02-19T15:54:32.878Z,20.40
2018-02-19T15:57:00.441Z,19.27
2018-02-19T15:59:28.768Z,21.77
2018-02-19T16:01:57.194Z,19.60
2018-02-19T16:04:24.838Z,20.08
2018-02-19T16:06:52.456Z,21.05
2018-02-19T16:09:20.798Z,19.02
2018-02-19T16:11:48.398Z,19.12
2018-02-19T16:14:15.961Z,20.65
2018-02-19T16:16:43.573Z,22.23
2018-02-19T16:19:11.122Z,18.23
2018-02-19T16:21:39.349Z,20.62
2018-02-19T16:24:07.857Z,19.08
2018-02-19T16:26:35.417Z,18.35
2018-02-19T16:29:02.976Z,20.52
2018-02-19T16:31:30.593Z,19.95
2018-02-19T16:33:58.470Z,19.33
2018-02-19T16:36:26.832Z,20.98
2018-02-19T16:38:54.367Z,18.67
2018-02-19T16:41:21.945Z,19.30
2018-02-19T16:43:49.503Z,21.62
2018-02-19T16:46:17.048Z,20.48
2018-02-19T16:48:44.641Z,20.55
2018-02-19T16:51:13.993Z,20.50
2018-02-19T16:53:41.587Z,18.65
2018-02-19T16:56:09.168Z,20.23
2018-02-19T16:58:37.484Z,23.25
2018-02-19T17:01:05.150Z,21.87
2018-02-19T17:03:32.750Z,20.17
2018-02-19T17:06:00.326Z,21.77
2018-02-19T17:08:28.990Z,20.23
2018-02-19T17:10:56.594Z,20.05
2018-02-19T17:13:24.194Z,23.17
2018-02-19T17:15:52.688Z,19.10
2018-02-19T17:18:20.276Z,20.62
2018-02-19T17:20:47.814Z,21.15
2018-02-19T17:23:15.443Z,25.90
2018-02-19T17:25:43.138Z,23.15
2018-02-19T17:28:10.696Z,22.62
2018-02-19T17:30:38.277Z,24.12
2018-02-19T17:33:05.877Z,27.40
2018-02-19T17:35:33.659Z,23.00
2018-02-19T17:38:01.279Z,23.90
2018-02-19T17:40:28.815Z,22.52
2018-02-19T17:42:57.154Z,22.40
2018-02-19T17:45:24.717Z,21.87
2018-02-19T17:47:52.298Z,23.30
2018-02-19T17:50:20.711Z,22.50
2018-02-19T17:52:48.985Z,22.15
2018-02-19T17:55:16.568Z,25.40
2018-02-19T17:57:44.101Z,22.40
2018-02-19T18:00:11.711Z,24.02
2018-02-19T18:02:39.312Z,22.52
2018-02-19T18:05:06.893Z,23.35
2018-02-19T18:07:34.455Z,24.20
2018-02-19T18:10:01.993Z,24.52
2018-02-19T18:12:29.551Z,23.02
2018-02-19T18:14:57.146Z,21.90
2018-02-19T18:17:24.733Z,21.73
2018-02-19T18:19:53.786Z,24.23
2018-02-19T18:22:21.336Z,22.45
2018-02-19T18:24:48.953Z,25.48
2018-02-19T18:27:26.551Z,22.58
2018-02-19T18:29:54.106Z,24.33
2018-02-19T18:32:21.679Z,23.73
2018-02-19T18:34:49.253Z,23.05
2018-02-19T18:37:17.633Z,22.20
2018-02-19T18:39:45.199Z,23.70
2018-02-19T18:42:12.787Z,24.67
2018-02-19T18:44:40.376Z,25.88
2018-02-19T18:47:07.934Z,22.80
2018-02-19T18:49:36.344Z,25.75
2018-02-19T18:52:03.982Z,26.77
2018-02-19T18:54:31.628Z,26.15
2018-02-19T18:56:59.225Z,27.05
2018-02-19T18:59:26.857Z,28.17
2018-02-19T19:01:54.409Z,27.60
2018-02-19T19:04:22.017Z,24.77
2018-02-19T19:06:49.608Z,29.45
2018-02-19T19:09:28.990Z,27.58
2018-02-19T19:11:56.776Z,28.02
2018-02-19T19:14:24.325Z,27.73
2018-02-19T19:16:51.946Z,27.95
2018-02-19T19:19:19.535Z,27.62
2018-02-19T19:21:47.066Z,26.90
2018-02-19T19:24:14.596Z,27.40
2018-02-19T19:26:42.182Z,28.30
2018-02-19T19:29:09.862Z,28.50
2018-02-19T19:31:37.419Z,26.85
2018-02-19T19:34:05.023Z,29.45
2018-02-19T19:36:33.353Z,26.70
2018-02-19T19:39:00.911Z,27.20
2018-02-19T19:41:28.628Z,26.15
2018-02-19T19:43:56.263Z,28.15
2018-02-19T19:46:23.811Z,27.10
2018-02-19T19:48:51.360Z,28.05
2018-02-19T19:51:18.899Z,27.08
2018-02-19T19:53:46.520Z,27.45
2018-02-19T19:56:14.054Z,28.70
2018-02-19T19:58:41.927Z,27.17
2018-02-19T20:01:09.512Z,28.58
2018-02-19T20:03:37.073Z,29.55
2018-02-19T20:06:04.626Z,27.65
2018-02-19T20:08:32.205Z,26.33
2018-02-19T20:10:59.800Z,29.90
2018-02-19T20:13:27.344Z,27.73
2018-02-19T20:15:54.903Z,29.15
2018-02-19T20:18:22.471Z,26.83
2018-02-19T20:20:50.044Z,29.00
2018-02-19T20:23:17.650Z,29.27
2018-02-19T20:25:45.184Z,28.15
2018-02-19T20:28:12.798Z,27.75
2018-02-19T20:30:40.321Z,31.48
2018-02-19T20:33:08.669Z,30.73
2018-02-19T20:35:37.006Z,27.17
2018-02-19T20:38:04.689Z,28.67
2018-02-19T20:40:32.304Z,28.62
2018-02-19T20:43:00.052Z,27.65
2018-02-19T20:45:28.371Z,28.50
2018-02-19T20:47:55.920Z,29.85
2018-02-19T20:50:23.680Z,28.90
2018-02-19T20:52:51.243Z,31.40
2018-02-19T20:55:18.804Z,28.55
2018-02-19T20:57:46.473Z,28.85
2018-02-19T21:00:14.022Z,29.35
2018-02-19T21:02:41.587Z,29.25
2018-02-19T21:05:09.181Z,32.60
2018-02-19T21:07:36.705Z,32.03
2018-02-19T21:10:04.291Z,32.35
2018-02-19T21:12:32.322Z,30.15
2018-02-19T21:15:00.643Z,32.08
2018-02-19T21:17:28.225Z,30.85
2018-02-19T21:19:55.817Z,29.58
2018-02-19T21:22:24.119Z,29.70
2018-02-19T21:24:51.662Z,31.83
2018-02-19T21:27:19.320Z,29.70
2018-02-19T21:29:48.376Z,34.00
2018-02-19T21:32:16.230Z,30.48
2018-02-19T21:34:43.834Z,26.80
2018-02-19T21:37:11.392Z,28.77
2018-02-19T21:39:38.946Z,30.48
2018-02-19T21:42:06.512Z,28.35
2018-02-19T21:44:34.084Z,31.73
2018-02-19T21:47:01.688Z,33.78
2018-02-19T21:49:29.277Z,31.58
2018-02-19T21:52:04.932Z,32.35
2018-02-19T21:54:32.674Z,32.58
2018-02-19T21:57:00.248Z,30.73
2018-02-19T21:59:27.857Z,33.42
2018-02-19T22:01:56.203Z,30.75
2018-02-19T22:04:23.816Z,29.58
2018-02-19T22:06:51.396Z,31.12
2018-02-19T22:09:18.953Z,30.65
2018-02-19T22:11:46.570Z,34.20
2018-02-19T22:14:14.901Z,32.22
2018-02-19T22:16:43.320Z,35.15
2018-02-19T22:19:11.053Z,32.42
2018-02-19T22:21:39.453Z,31.92
2018-02-19T22:24:08.115Z,30.67
2018-02-19T22:26:35.912Z,32.15
2018-02-19T22:29:04.330Z,33.22
2018-02-19T22:31:32.165Z,32.13
2018-02-19T22:34:03.676Z,30.58
2018-02-19T22:36:31.314Z,33.13
2018-02-19T22:38:58.936Z,30.10
2018-02-19T22:41:26.493Z,32.85
2018-02-19T22:43:54.144Z,32.50
2018-02-19T22:46:21.722Z,32.55
2018-02-19T22:48:49.273Z,32.72
2018-02-19T22:51:16.889Z,31.90
2018-02-19T22:53:45.198Z,32.13
2018-02-19T22:56:12.767Z,33.47
2018-02-19T22:58:40.352Z,31.27
2018-02-19T23:01:07.918Z,31.58
2018-02-19T23:03:36.291Z,30.25
2018-02-19T23:06:03.853Z,32.90
2018-02-19T23:08:31.469Z,30.75
2018-02-19T23:10:59.098Z,31.80
2018-02-19T23:13:26.784Z,29.73
2018-02-19T23:15:54.464Z,30.20
2018-02-19T23:18:22.727Z,31.50
2018-02-19T23:20:50.645Z,30.48
2018-02-19T23:23:18.239Z,31.62
2018-02-19T23:25:45.867Z,31.37
2018-02-19T23:28:13.526Z,28.38
2018-02-19T23:30:41.083Z,30.90
2018-02-19T23:33:08.640Z,27.58
2018-02-19T23:35:36.229Z,31.65
2018-02-19T23:38:03.822Z,31.23
2018-02-19T23:40:31.355Z,30.62
2018-02-19T23:42:59.701Z,28.23
2018-02-19T23:45:27.252Z,32.75
2018-02-19T23:47:54.841Z,30.73
2018-02-19T23:50:22.418Z,30.37
2018-02-19T23:52:49.987Z,29.45
2018-02-19T23:55:17.557Z,29.33
2018-02-19T23:57:45.140Z,30.95
